Terminal Aerodrome Forecast
Issued by NWS

Home | Current Version | Previous Version | Text Only | Print | Product List | Glossary On
Versions: 1 2 3 4 5 6 7 8 9 10 11 12 13 14 15 16 17 18 19 20 21 22 23 24 25 26 27 28 29 30 31 32 33 34 35 36 37 38 39 40 41 42 43 44 45 46 47 48 49 50
426
FTUS43 KLOT 232320
TAFGYY
TAF
KGYY 232320Z 2400/2424 28009KT P6SM FEW014 BKN150
     FM240200 27007KT P6SM -RA BKN060
     FM240500 28013G22KT 6SM -RA SCT025 OVC035
     FM240700 26013KT 4SM -RA SCT008 OVC012
     FM241500 27013G24KT 5SM -SHRA SCT008 OVC012
     FM241900 28016G27KT 6SM -SHRA OVC020=

USA.gov is the U.S. government's official web portal to all federal, state and local government web resources and services.